Time;durP1;ratioP1;P1;durP2;ratioP2;P2;SDS_P1;SDS_P2;PMS_P1;PMS_P2;Temp;Humidity;BMP_temperature;BMP_pressure;BME280_temperature;BME280_humidity;BME280_pressure;Samples;Min_cycle;Max_cycle;Signal;HPM_P1;HPM_P2
2023/09/28 00:00:51;;;;;;;6.32;3.10;;;22.50;54.40;;;;;;6242503;28;20435;-75
2023/09/28 00:03:52;;;;;;;9.07;3.55;;;22.50;54.40;;;;;;6242786;28;20532;-75
2023/09/28 00:06:53;;;;;;;7.93;3.13;;;22.50;54.40;;;;;;6242847;28;20048;-76
2023/09/28 00:09:54;;;;;;;5.97;3.40;;;22.50;54.40;;;;;;6240786;28;20140;-75
2023/09/28 00:12:55;;;;;;;5.80;2.72;;;22.40;54.50;;;;;;6242549;28;20037;-76
2023/09/28 00:15:56;;;;;;;6.80;3.45;;;22.40;54.60;;;;;;6243008;28;20065;-75
2023/09/28 00:18:57;;;;;;;7.80;3.15;;;22.40;54.80;;;;;;6240769;28;20052;-75
2023/09/28 00:21:58;;;;;;;7.55;3.67;;;22.30;54.90;;;;;;6223742;28;20029;-77
2023/09/28 00:24:59;;;;;;;10.15;2.95;;;22.30;54.90;;;;;;6241927;28;20091;-75
2023/09/28 00:28:00;;;;;;;6.75;3.58;;;22.20;55.00;;;;;;6223594;28;20096;-76
2023/09/28 00:31:04;;;;;;;6.63;3.40;;;22.20;55.30;;;;;;6242068;28;20026;-75
2023/09/28 00:34:06;;;;;;;6.70;3.15;;;22.20;55.50;;;;;;6223594;28;20116;-77
2023/09/28 00:37:07;;;;;;;6.35;3.05;;;22.10;55.70;;;;;;6241539;28;20689;-75
2023/09/28 00:40:19;;;;;;;6.35;3.25;;;22.10;56.00;;;;;;6223235;28;20655;-77
2023/09/28 00:43:28;;;;;;;5.90;2.92;;;22.10;56.20;;;;;;6223549;28;20070;-76
2023/09/28 00:46:33;;;;;;;7.18;3.03;;;22.00;56.20;;;;;;6222841;28;20106;-75
2023/09/28 00:49:33;;;;;;;5.78;3.08;;;22.00;56.40;;;;;;6235716;28;20037;-75
2023/09/28 00:52:35;;;;;;;8.05;3.65;;;22.00;56.50;;;;;;6241870;28;20375;-76
2023/09/28 00:55:39;;;;;;;13.90;3.13;;;21.90;56.40;;;;;;6223320;28;20033;-75
2023/09/28 00:58:40;;;;;;;11.93;3.40;;;21.90;56.50;;;;;;6242699;28;20064;-75
2023/09/28 01:01:40;;;;;;;6.45;2.78;;;21.80;56.60;;;;;;6222770;28;20086;-75
2023/09/28 01:04:41;;;;;;;5.68;2.97;;;21.80;57.00;;;;;;6223698;28;20040;-76
2023/09/28 01:07:42;;;;;;;4.03;2.50;;;21.70;57.30;;;;;;6240749;28;20117;-75
2023/09/28 01:10:45;;;;;;;5.78;2.88;;;21.50;57.70;;;;;;6238837;28;20105;-74
2023/09/28 01:13:47;;;;;;;6.45;2.88;;;21.40;57.90;;;;;;6239271;28;20067;-76
2023/09/28 01:16:48;;;;;;;7.35;2.70;;;21.30;58.20;;;;;;6223820;28;20088;-75
2023/09/28 01:19:49;;;;;;;8.45;2.83;;;21.30;58.40;;;;;;6216586;28;20488;-75
2023/09/28 01:22:50;;;;;;;5.70;3.30;;;21.20;58.50;;;;;;6240568;28;20140;-74
2023/09/28 01:25:52;;;;;;;5.95;2.72;;;21.30;58.60;;;;;;6222440;28;20037;-75
2023/09/28 01:28:53;;;;;;;11.20;3.45;;;21.20;58.60;;;;;;6222131;28;20029;-76
2023/09/28 01:31:54;;;;;;;6.47;2.97;;;21.20;58.50;;;;;;6240626;28;20036;-76
2023/09/28 01:34:55;;;;;;;10.55;3.20;;;21.30;58.40;;;;;;6206020;28;20379;-76
2023/09/28 01:38:28;;;;;;;8.32;2.83;;;21.20;58.30;;;;;;6222010;28;20037;-76
2023/09/28 01:41:29;;;;;;;6.03;3.00;;;21.20;58.40;;;;;;6240079;28;20030;-76
2023/09/28 01:44:30;;;;;;;9.55;3.10;;;21.20;58.40;;;;;;6240372;28;20030;-74
2023/09/28 01:47:31;;;;;;;6.20;2.70;;;21.20;58.50;;;;;;6222418;28;20040;-76
2023/09/28 01:50:32;;;;;;;6.53;3.35;;;21.20;58.60;;;;;;6240465;28;20029;-75
2023/09/28 01:53:33;;;;;;;6.90;2.97;;;21.20;58.60;;;;;;6240634;28;20025;-76
2023/09/28 01:56:34;;;;;;;6.80;2.88;;;21.10;58.60;;;;;;6222304;28;20405;-75
2023/09/28 01:59:36;;;;;;;12.68;3.25;;;21.20;58.60;;;;;;6221383;28;20135;-77
2023/09/28 02:02:37;;;;;;;11.45;3.22;;;21.20;58.60;;;;;;6239917;28;20065;-75
2023/09/28 02:05:38;;;;;;;5.47;3.05;;;21.20;58.50;;;;;;6238077;28;20040;-76
2023/09/28 02:08:40;;;;;;;12.25;3.03;;;21.20;58.50;;;;;;6238336;28;20728;-76
2023/09/28 02:11:43;;;;;;;14.65;3.08;;;21.10;58.50;;;;;;6229727;28;20177;-75
2023/09/28 02:14:44;;;;;;;7.38;3.60;;;21.10;58.80;;;;;;6213635;28;20564;-75
2023/09/28 02:17:45;;;;;;;5.35;3.15;;;21.00;58.90;;;;;;6213415;28;20156;-75
2023/09/28 02:20:46;;;;;;;4.93;2.63;;;21.00;59.20;;;;;;6212468;28;20824;-75
2023/09/28 02:23:48;;;;;;;8.93;2.65;;;20.90;59.20;;;;;;6213363;28;20105;-76
2023/09/28 02:26:51;;;;;;;7.55;3.17;;;20.90;59.30;;;;;;6197017;28;20029;-76
2023/09/28 02:29:52;;;;;;;4.70;2.67;;;20.90;59.30;;;;;;6214693;28;20050;-76
2023/09/28 02:32:55;;;;;;;10.88;2.97;;;20.90;59.30;;;;;;6214524;28;20080;-77
2023/09/28 02:35:56;;;;;;;5.97;2.70;;;20.80;59.20;;;;;;6232853;28;20370;-76
2023/09/28 02:38:57;;;;;;;6.78;2.95;;;20.80;59.30;;;;;;6238522;28;20037;-76
2023/09/28 02:41:58;;;;;;;5.57;2.58;;;20.80;59.40;;;;;;6237242;28;20049;-76
2023/09/28 02:44:59;;;;;;;10.65;3.75;;;20.70;59.50;;;;;;6237243;28;20026;-75
2023/09/28 02:48:00;;;;;;;10.13;3.38;;;20.70;59.70;;;;;;6236910;28;20032;-75
2023/09/28 02:51:03;;;;;;;6.30;3.47;;;20.70;60.00;;;;;;6236598;28;20033;-77
2023/09/28 02:54:06;;;;;;;7.10;3.30;;;20.70;60.20;;;;;;6238547;28;20178;-75
2023/09/28 02:57:07;;;;;;;7.25;3.17;;;20.60;60.10;;;;;;6237110;28;20139;-76
2023/09/28 03:00:13;;;;;;;6.53;2.83;;;20.60;60.20;;;;;;6236993;28;20116;-75
2023/09/28 03:03:15;;;;;;;5.85;3.08;;;20.60;60.20;;;;;;6236683;28;20120;-75
2023/09/28 03:06:16;;;;;;;6.38;3.00;;;20.60;60.40;;;;;;6238186;28;20369;-75
2023/09/28 03:09:17;;;;;;;5.75;2.97;;;20.50;60.40;;;;;;6239095;28;20103;-76
2023/09/28 03:12:18;;;;;;;8.68;3.20;;;20.60;60.50;;;;;;6236282;28;20040;-75
2023/09/28 03:15:20;;;;;;;11.70;3.30;;;20.50;60.50;;;;;;6237977;28;20034;-76
2023/09/28 03:18:21;;;;;;;7.05;2.92;;;20.60;60.40;;;;;;6237123;28;20116;-77
2023/09/28 03:21:21;;;;;;;7.80;3.28;;;20.60;60.40;;;;;;6236907;28;20087;-75
2023/09/28 03:24:22;;;;;;;10.98;3.22;;;20.60;60.40;;;;;;6238020;28;20029;-76
2023/09/28 03:27:23;;;;;;;7.25;2.70;;;20.60;60.30;;;;;;6220527;28;20470;-76
2023/09/28 03:30:25;;;;;;;6.32;3.08;;;20.60;60.20;;;;;;6238183;28;20112;-76
2023/09/28 03:33:26;;;;;;;10.35;3.33;;;20.60;60.10;;;;;;6194838;28;20574;-74
2023/09/28 03:36:30;;;;;;;15.20;3.08;;;20.50;60.10;;;;;;6211464;28;20067;-74
2023/09/28 03:39:31;;;;;;;13.65;2.97;;;20.60;60.20;;;;;;6213030;28;20030;-75
2023/09/28 03:42:31;;;;;;;11.63;3.30;;;20.50;60.00;;;;;;6213661;28;20037;-76
2023/09/28 03:45:33;;;;;;;10.38;3.03;;;20.50;60.00;;;;;;6224007;28;20037;-75
2023/09/28 03:48:34;;;;;;;4.93;2.58;;;20.50;59.90;;;;;;6226882;28;20086;-76
2023/09/28 03:51:35;;;;;;;8.38;2.78;;;20.50;60.00;;;;;;6213089;28;20431;-76
2023/09/28 03:54:36;;;;;;;6.85;2.78;;;20.50;60.00;;;;;;6213971;28;20160;-75
2023/09/28 03:57:37;;;;;;;7.47;3.53;;;20.50;60.00;;;;;;6227383;28;20485;-75
2023/09/28 04:00:38;;;;;;;10.35;3.63;;;20.50;60.00;;;;;;6230878;28;20493;-75
2023/09/28 04:03:40;;;;;;;8.38;3.30;;;20.40;60.10;;;;;;6236852;28;20045;-76
2023/09/28 04:06:40;;;;;;;11.77;3.88;;;20.40;60.40;;;;;;6235631;28;20026;-75
2023/09/28 04:09:41;;;;;;;7.30;3.80;;;20.40;60.70;;;;;;6218494;28;20367;-74
2023/09/28 04:12:42;;;;;;;9.32;4.47;;;20.30;60.80;;;;;;6215913;28;20049;-76
2023/09/28 04:15:43;;;;;;;6.32;3.08;;;20.30;60.90;;;;;;6212367;28;20140;-75
2023/09/28 04:18:44;;;;;;;11.57;3.40;;;20.30;60.90;;;;;;6212461;28;20041;-75
2023/09/28 04:21:45;;;;;;;10.05;3.72;;;20.30;61.00;;;;;;6211759;28;20042;-74
2023/09/28 04:24:46;;;;;;;8.85;3.58;;;20.30;61.10;;;;;;6178211;28;20038;-76
2023/09/28 04:27:49;;;;;;;8.13;4.13;;;20.30;61.10;;;;;;6225539;28;20129;-74
2023/09/28 04:30:51;;;;;;;8.57;3.85;;;20.20;61.20;;;;;;6236936;28;20411;-75
2023/09/28 04:33:52;;;;;;;7.65;3.10;;;20.20;61.40;;;;;;6218746;28;20526;-75
2023/09/28 04:36:53;;;;;;;6.40;3.70;;;20.10;61.30;;;;;;6218721;28;20034;-75
2023/09/28 04:39:54;;;;;;;7.05;3.55;;;20.10;61.40;;;;;;6236485;28;20108;-75
2023/09/28 04:42:55;;;;;;;14.02;3.45;;;20.10;61.30;;;;;;6238332;28;20056;-76
2023/09/28 04:45:56;;;;;;;10.57;3.60;;;20.10;61.20;;;;;;6233196;28;20036;-75
2023/09/28 04:48:57;;;;;;;7.72;3.30;;;20.00;61.10;;;;;;6221197;28;20037;-75
2023/09/28 04:51:58;;;;;;;10.18;3.75;;;20.20;61.20;;;;;;6217169;28;20132;-76
2023/09/28 04:54:59;;;;;;;12.55;5.10;;;20.10;61.20;;;;;;6231296;28;20121;-74
2023/09/28 04:58:00;;;;;;;14.75;5.38;;;20.00;61.20;;;;;;6221675;28;20119;-76
2023/09/28 05:01:01;;;;;;;11.10;6.25;;;20.10;61.40;;;;;;6238593;28;20040;-76
2023/09/28 05:04:02;;;;;;;15.52;6.75;;;20.00;61.40;;;;;;6240702;28;20144;-75
2023/09/28 05:07:06;;;;;;;14.98;6.22;;;20.10;61.60;;;;;;6240457;28;20119;-75
2023/09/28 05:10:08;;;;;;;18.60;8.07;;;20.00;61.70;;;;;;6238880;28;20045;-76
2023/09/28 05:13:09;;;;;;;15.07;8.15;;;20.00;61.80;;;;;;6240806;28;20037;-76
2023/09/28 05:16:10;;;;;;;18.73;6.85;;;20.00;61.90;;;;;;6221945;28;20092;-74
2023/09/28 05:19:10;;;;;;;17.70;7.72;;;20.00;62.00;;;;;;6238677;28;20324;-76
2023/09/28 05:22:11;;;;;;;18.70;7.40;;;20.00;62.90;;;;;;6239911;28;20117;-76
2023/09/28 05:25:12;;;;;;;19.50;5.75;;;20.00;62.30;;;;;;6231988;28;20475;-74
2023/09/28 05:28:14;;;;;;;11.15;6.00;;;19.90;62.30;;;;;;6222333;28;20049;-78
2023/09/28 05:31:15;;;;;;;11.25;5.25;;;19.90;62.50;;;;;;6238088;28;20335;-75
2023/09/28 05:34:16;;;;;;;10.60;5.15;;;19.90;62.60;;;;;;6238840;28;20136;-75
2023/09/28 05:37:17;;;;;;;8.60;4.53;;;19.90;62.70;;;;;;6221287;28;20521;-76
2023/09/28 05:40:18;;;;;;;10.90;4.60;;;19.80;62.60;;;;;;6205083;28;20117;-76
2023/09/28 05:43:19;;;;;;;13.77;5.20;;;19.80;62.70;;;;;;6240280;28;20115;-76
2023/09/28 05:46:20;;;;;;;16.50;5.35;;;19.80;62.70;;;;;;6221441;28;20085;-77
2023/09/28 05:49:20;;;;;;;10.07;4.20;;;19.80;62.60;;;;;;6222072;28;20108;-78
2023/09/28 05:52:22;;;;;;;10.88;4.20;;;19.80;62.50;;;;;;6215668;28;20164;-76
2023/09/28 05:55:25;;;;;;;9.18;3.70;;;19.80;62.40;;;;;;6214545;28;20029;-76
2023/09/28 05:58:26;;;;;;;8.48;3.28;;;19.90;62.30;;;;;;6231353;28;20250;-75
2023/09/28 06:01:29;;;;;;;20.48;5.28;;;19.90;62.30;;;;;;6239618;28;20139;-75
2023/09/28 06:04:30;;;;;;;13.00;4.13;;;19.80;61.70;;;;;;6221054;28;20053;-77
2023/09/28 06:07:31;;;;;;;9.48;3.47;;;19.80;62.30;;;;;;6237455;28;20648;-75
2023/09/28 06:10:33;;;;;;;9.85;3.47;;;19.80;62.40;;;;;;6236804;28;20118;-75
2023/09/28 06:13:34;;;;;;;6.50;3.00;;;19.80;62.20;;;;;;6237534;28;20037;-75
2023/09/28 06:16:39;;;;;;;7.97;3.50;;;19.90;62.30;;;;;;6240141;28;20067;-76
2023/09/28 06:19:40;;;;;;;7.88;3.42;;;19.90;62.30;;;;;;6238147;28;20049;-76
2023/09/28 06:22:41;;;;;;;11.52;4.20;;;19.90;62.30;;;;;;6239525;28;20030;-76
2023/09/28 06:25:44;;;;;;;8.40;3.35;;;19.80;62.40;;;;;;6238726;28;20113;-75
2023/09/28 06:28:45;;;;;;;7.10;3.45;;;19.80;62.60;;;;;;6236941;28;20048;-75
2023/09/28 06:31:46;;;;;;;7.32;4.00;;;19.90;62.80;;;;;;6238060;28;20033;-75
2023/09/28 06:34:46;;;;;;;11.50;3.88;;;19.90;62.70;;;;;;6236686;28;20038;-77
2023/09/28 06:37:47;;;;;;;6.78;3.55;;;19.80;62.60;;;;;;6203739;28;20033;-76
2023/09/28 06:40:48;;;;;;;8.13;3.53;;;19.90;62.80;;;;;;6236644;28;20108;-76
2023/09/28 06:43:49;;;;;;;11.75;3.17;;;19.90;62.70;;;;;;6221524;28;20052;-77
2023/09/28 06:46:50;;;;;;;8.13;3.47;;;19.90;62.60;;;;;;6239273;28;20069;-75
2023/09/28 06:49:51;;;;;;;13.52;3.22;;;20.00;62.60;;;;;;6237196;28;20359;-75
2023/09/28 06:52:52;;;;;;;6.50;3.45;;;19.90;63.40;;;;;;6220301;28;20068;-75
2023/09/28 06:55:54;;;;;;;10.18;3.42;;;19.90;62.60;;;;;;6238714;28;20037;-75
2023/09/28 06:58:55;;;;;;;5.40;3.10;;;19.90;62.60;;;;;;6220123;28;20120;-76
2023/09/28 07:01:56;;;;;;;9.27;3.92;;;19.90;62.60;;;;;;6238176;28;20029;-76
2023/09/28 07:04:57;;;;;;;11.20;3.47;;;20.00;62.60;;;;;;6219553;28;20412;-75
2023/09/28 07:07:58;;;;;;;7.78;3.42;;;20.00;62.30;;;;;;6220350;28;20040;-76
2023/09/28 07:10:59;;;;;;;9.35;3.92;;;20.10;62.20;;;;;;6219502;28;20489;-76
2023/09/28 07:13:59;;;;;;;8.02;3.03;;;20.20;62.00;;;;;;6238798;28;20029;-75
2023/09/28 07:17:00;;;;;;;9.90;3.72;;;20.20;61.80;;;;;;6220862;28;20458;-75
2023/09/28 07:20:03;;;;;;;8.43;3.90;;;20.30;61.50;;;;;;6213557;28;20121;-76
2023/09/28 07:23:04;;;;;;;11.90;4.22;;;20.30;61.30;;;;;;6195767;28;20487;-75
2023/09/28 07:26:17;;;;;;;10.63;3.83;;;20.60;61.40;;;;;;6213593;28;20073;-76
2023/09/28 07:29:18;;;;;;;11.70;3.53;;;20.50;61.20;;;;;;6213957;28;20040;-75
2023/09/28 07:32:19;;;;;;;12.35;3.70;;;20.60;60.90;;;;;;6211250;28;20448;-76
2023/09/28 07:35:20;;;;;;;10.48;4.50;;;20.70;59.80;;;;;;6211223;28;20176;-76
2023/09/28 07:38:21;;;;;;;14.57;3.70;;;20.70;60.40;;;;;;6212677;28;20081;-74
2023/09/28 07:41:22;;;;;;;11.85;4.10;;;20.80;60.40;;;;;;6213058;28;20113;-75
2023/09/28 07:44:23;;;;;;;10.00;4.10;;;20.90;60.20;;;;;;6214759;28;20064;-77
2023/09/28 07:47:23;;;;;;;11.35;4.25;;;21.00;59.90;;;;;;6236818;28;20066;-77
2023/09/28 07:50:24;;;;;;;13.45;4.68;;;21.10;59.70;;;;;;6218858;28;20768;-76
2023/09/28 07:53:25;;;;;;;9.30;3.75;;;21.10;59.50;;;;;;6235903;28;20146;-78
2023/09/28 07:56:26;;;;;;;13.45;3.47;;;21.30;59.20;;;;;;6237749;28;20036;-75
2023/09/28 07:59:27;;;;;;;10.23;4.10;;;21.40;59.00;;;;;;6236805;28;20179;-76
2023/09/28 08:02:28;;;;;;;9.85;3.70;;;21.40;58.70;;;;;;6203114;28;20164;-75
2023/09/28 08:05:31;;;;;;;14.20;4.05;;;21.50;58.50;;;;;;6202868;28;20042;-78
2023/09/28 08:08:32;;;;;;;20.05;3.80;;;21.60;58.40;;;;;;6235120;28;20029;-76
2023/09/28 08:11:32;;;;;;;7.95;3.78;;;21.70;58.20;;;;;;6210664;28;20132;-76
2023/09/28 08:14:34;;;;;;;7.68;3.95;;;21.90;58.00;;;;;;6188588;28;20129;-75
2023/09/28 08:17:39;;;;;;;10.32;4.60;;;22.00;57.70;;;;;;6214362;28;20096;-76
2023/09/28 08:20:40;;;;;;;12.63;4.05;;;22.10;57.40;;;;;;6199670;28;20029;-74
2023/09/28 08:23:41;;;;;;;8.95;4.35;;;22.30;57.00;;;;;;6215270;28;20510;-77
2023/09/28 08:26:42;;;;;;;9.23;3.35;;;22.40;56.60;;;;;;6217214;28;20463;-76
2023/09/28 08:29:43;;;;;;;10.77;4.80;;;22.50;56.50;;;;;;6217409;28;20026;-77
2023/09/28 08:32:45;;;;;;;9.95;3.53;;;22.60;56.20;;;;;;6217622;28;20149;-76
2023/09/28 08:35:51;;;;;;;12.52;4.10;;;22.80;55.90;;;;;;6217095;28;20030;-77
2023/09/28 08:38:53;;;;;;;10.52;3.83;;;23.00;55.40;;;;;;6183447;28;20163;-76
2023/09/28 08:41:55;;;;;;;23.10;4.28;;;23.10;55.20;;;;;;6217204;28;20040;-75
2023/09/28 08:45:03;;;;;;;11.68;3.67;;;23.30;54.80;;;;;;6215643;28;20490;-74
2023/09/28 08:48:06;;;;;;;14.93;3.88;;;23.40;54.50;;;;;;6222535;28;20187;-75
2023/09/28 08:51:10;;;;;;;7.32;3.60;;;23.60;54.30;;;;;;6242011;28;20101;-76
2023/09/28 08:54:12;;;;;;;6.22;3.30;;;23.80;54.10;;;;;;6223270;28;20124;-75
2023/09/28 08:57:15;;;;;;;12.73;5.47;;;23.80;53.40;;;;;;6240037;28;20513;-76
2023/09/28 09:00:22;;;;;;;11.25;5.13;;;23.90;53.00;;;;;;6257082;28;20167;-77
2023/09/28 09:03:24;;;;;;;10.07;3.70;;;24.00;52.80;;;;;;6223303;28;20037;-76
2023/09/28 09:06:28;;;;;;;8.20;4.18;;;24.10;52.40;;;;;;6240991;28;20115;-75
2023/09/28 09:09:32;;;;;;;13.88;5.50;;;24.20;51.80;;;;;;6223224;28;20818;-75
2023/09/28 09:12:34;;;;;;;11.27;4.35;;;24.50;51.80;;;;;;6221604;28;20556;-75
2023/09/28 09:15:36;;;;;;;9.25;3.92;;;24.40;51.30;;;;;;6198283;28;20140;-75
2023/09/28 09:18:38;;;;;;;8.60;3.83;;;24.50;51.10;;;;;;6216641;28;20088;-76
2023/09/28 09:21:41;;;;;;;6.35;3.38;;;24.70;50.60;;;;;;6197558;28;20439;-76
2023/09/28 09:24:55;;;;;;;8.48;3.03;;;24.70;50.10;;;;;;6216120;28;20064;-75
2023/09/28 09:27:55;;;;;;;8.10;3.65;;;24.80;49.70;;;;;;6197406;28;20111;-75
2023/09/28 09:30:57;;;;;;;18.17;5.32;;;24.90;49.70;;;;;;6198057;28;20034;-76
2023/09/28 09:33:58;;;;;;;15.55;4.18;;;24.90;49.40;;;;;;6215511;28;20029;-76
2023/09/28 09:36:59;;;;;;;5.75;3.30;;;25.00;49.30;;;;;;6215434;28;20131;-76
2023/09/28 09:40:15;;;;;;;14.02;3.63;;;25.20;49.10;;;;;;6215597;28;20069;-76
2023/09/28 09:43:16;;;;;;;9.18;3.00;;;25.30;48.90;;;;;;6215724;28;20041;-75
2023/09/28 09:46:17;;;;;;;8.38;3.03;;;25.40;48.30;;;;;;6214075;28;20109;-75
2023/09/28 09:49:19;;;;;;;13.75;4.10;;;25.40;47.80;;;;;;6214217;28;20030;-76
2023/09/28 09:52:21;;;;;;;8.63;4.10;;;25.50;47.80;;;;;;6198197;28;20037;-76
2023/09/28 09:55:22;;;;;;;11.68;3.92;;;25.60;47.50;;;;;;6214955;28;20117;-76
2023/09/28 09:58:27;;;;;;;6.47;2.55;;;25.70;47.50;;;;;;6222855;28;20659;-77
2023/09/28 10:01:29;;;;;;;9.50;2.95;;;25.90;47.10;;;;;;6241120;28;20034;-78
2023/09/28 10:04:31;;;;;;;9.27;4.10;;;26.00;46.60;;;;;;6241746;28;20036;-77
2023/09/28 10:07:36;;;;;;;7.38;3.30;;;26.10;45.80;;;;;;6241909;28;20027;-76
2023/09/28 10:10:38;;;;;;;13.98;3.95;;;26.20;45.60;;;;;;6239831;28;20109;-77
2023/09/28 10:13:40;;;;;;;19.33;6.45;;;26.20;45.70;;;;;;6222579;28;20088;-76
2023/09/28 10:16:42;;;;;;;5.88;2.70;;;26.40;45.80;;;;;;6240059;28;20414;-77
2023/09/28 10:19:43;;;;;;;6.38;3.10;;;26.60;45.30;;;;;;6241026;28;20037;-75
2023/09/28 10:22:45;;;;;;;6.88;3.65;;;26.60;44.80;;;;;;6206003;28;20108;-77
2023/09/28 10:26:15;;;;;;;8.50;3.30;;;26.70;44.40;;;;;;6221510;28;20450;-76
2023/09/28 10:29:28;;;;;;;13.68;5.13;;;26.90;44.30;;;;;;6236653;28;20675;-76
2023/09/28 10:32:30;;;;;;;11.57;4.07;;;27.20;44.20;;;;;;6222191;28;20052;-77
2023/09/28 10:35:31;;;;;;;5.97;3.28;;;27.40;43.40;;;;;;6221284;28;20032;-76
2023/09/28 10:38:32;;;;;;;8.63;2.90;;;27.70;42.90;;;;;;6240672;28;20092;-78
2023/09/28 10:41:32;;;;;;;6.43;2.70;;;27.90;42.20;;;;;;6240366;28;20111;-77
2023/09/28 10:44:33;;;;;;;6.72;2.80;;;28.10;41.80;;;;;;6240390;28;20083;-76
2023/09/28 10:47:36;;;;;;;8.43;3.10;;;28.30;41.60;;;;;;6236155;28;20048;-77
2023/09/28 10:50:40;;;;;;;4.95;2.92;;;28.50;41.30;;;;;;6213430;28;20041;-76
2023/09/28 10:53:41;;;;;;;6.28;2.60;;;28.70;40.20;;;;;;6215877;28;20048;-78
2023/09/28 10:56:42;;;;;;;6.47;2.85;;;28.80;40.10;;;;;;6213185;28;20069;-77
2023/09/28 10:59:43;;;;;;;6.68;3.17;;;29.10;39.70;;;;;;6215655;28;20040;-75
2023/09/28 11:02:46;;;;;;;7.47;3.28;;;29.50;39.10;;;;;;6231536;28;20041;-76
2023/09/28 11:05:47;;;;;;;5.45;2.65;;;29.90;38.40;;;;;;6237261;28;20040;-78
2023/09/28 11:08:49;;;;;;;7.90;2.90;;;30.10;37.90;;;;;;6220942;28;20021;-76
2023/09/28 11:11:50;;;;;;;5.50;2.92;;;30.20;37.50;;;;;;6223224;28;20073;-76
2023/09/28 11:14:51;;;;;;;8.27;2.70;;;30.30;37.40;;;;;;6196190;28;20038;-75
2023/09/28 11:17:52;;;;;;;6.65;2.65;;;30.30;37.50;;;;;;6195867;28;20044;-75
2023/09/28 11:20:57;;;;;;;10.80;4.22;;;30.30;37.60;;;;;;6214114;28;20042;-76
2023/09/28 11:23:57;;;;;;;8.95;3.40;;;30.20;37.50;;;;;;6212687;28;20434;-76
2023/09/28 11:26:59;;;;;;;7.93;3.38;;;30.30;37.30;;;;;;6213312;28;20067;-77
2023/09/28 11:30:02;;;;;;;11.25;3.47;;;30.20;37.20;;;;;;6214219;28;20343;-76
2023/09/28 11:33:04;;;;;;;7.55;3.15;;;30.20;37.30;;;;;;6213819;28;20450;-75
2023/09/28 11:36:12;;;;;;;7.47;3.42;;;30.40;36.70;;;;;;6214053;28;20041;-75
2023/09/28 11:39:14;;;;;;;7.05;2.47;;;30.60;36.30;;;;;;6213045;28;20463;-76
2023/09/28 11:42:16;;;;;;;9.10;2.70;;;30.90;35.90;;;;;;6213816;28;20333;-75
2023/09/28 11:45:17;;;;;;;5.15;2.55;;;31.20;35.40;;;;;;6212883;28;20556;-76
2023/09/28 11:48:21;;;;;;;4.65;2.90;;;31.40;34.90;;;;;;6213223;28;20084;-76
2023/09/28 11:51:22;;;;;;;4.30;2.72;;;31.60;34.50;;;;;;6213579;28;20053;-76
2023/09/28 11:54:23;;;;;;;5.68;3.17;;;31.90;34.40;;;;;;6212665;28;20176;-76
2023/09/28 11:57:25;;;;;;;16.35;3.25;;;32.20;34.10;;;;;;6223075;28;20033;-77
2023/09/28 12:00:26;;;;;;;10.02;3.45;;;32.80;33.60;;;;;;6195813;28;20034;-77
2023/09/28 12:03:27;;;;;;;3.78;2.33;;;33.40;33.00;;;;;;6196226;28;20034;-78
2023/09/28 12:06:28;;;;;;;4.40;2.63;;;34.00;32.30;;;;;;6212141;28;20052;-75
2023/09/28 12:09:31;;;;;;;5.43;2.85;;;34.60;31.40;;;;;;6212548;28;20725;-77
2023/09/28 12:12:31;;;;;;;3.85;2.30;;;35.10;30.30;;;;;;6233015;28;20033;-76
2023/09/28 12:15:32;;;;;;;6.30;2.70;;;35.80;29.40;;;;;;6236740;28;20059;-77
2023/09/28 12:18:33;;;;;;;5.80;2.80;;;36.50;28.80;;;;;;6234057;28;20049;-75
2023/09/28 12:21:35;;;;;;;9.90;2.83;;;37.20;28.20;;;;;;6236758;28;20025;-75
2023/09/28 12:24:35;;;;;;;8.23;2.83;;;38.00;27.40;;;;;;6236839;28;20029;-76
2023/09/28 12:27:37;;;;;;;8.35;3.63;;;38.50;26.60;;;;;;6236880;28;20747;-76
2023/09/28 12:30:38;;;;;;;9.90;3.00;;;39.00;26.20;;;;;;6236963;28;20168;-78
2023/09/28 12:33:39;;;;;;;6.75;3.10;;;39.50;25.60;;;;;;6202800;28;20033;-78
2023/09/28 12:36:41;;;;;;;8.25;2.88;;;39.90;25.10;;;;;;6236760;28;20131;-77
2023/09/28 12:39:42;;;;;;;13.23;2.72;;;40.00;24.60;;;;;;6218792;28;20030;-77
2023/09/28 12:42:43;;;;;;;4.88;2.55;;;40.20;24.30;;;;;;6237650;28;20099;-76
2023/09/28 12:45:44;;;;;;;3.78;2.58;;;40.00;24.40;;;;;;6236633;28;20088;-77
2023/09/28 12:48:45;;;;;;;6.95;2.78;;;40.00;24.20;;;;;;6237402;28;20465;-76
2023/09/28 12:51:47;;;;;;;4.57;2.25;;;39.70;24.50;;;;;;6236567;28;20117;-77
2023/09/28 12:54:48;;;;;;;7.25;3.17;;;38.90;25.10;;;;;;6234679;28;20041;-75
2023/09/28 12:57:54;;;;;;;8.30;2.70;;;37.90;25.70;;;;;;6215761;28;20029;-77
2023/09/28 13:00:55;;;;;;;9.23;3.38;;;37.00;26.40;;;;;;6236572;28;20037;-75
2023/09/28 13:03:59;;;;;;;9.60;2.90;;;36.20;27.10;;;;;;6239655;28;20449;-77
2023/09/28 13:07:00;;;;;;;4.45;2.40;;;35.50;27.70;;;;;;6222694;28;20115;-77
2023/09/28 13:10:03;;;;;;;4.95;2.80;;;34.90;28.40;;;;;;6223287;28;20597;-76
2023/09/28 13:13:06;;;;;;;4.78;2.83;;;34.40;28.80;;;;;;6228716;28;20029;-76
2023/09/28 13:16:08;;;;;;;4.93;2.50;;;33.90;29.00;;;;;;6226246;28;20069;-76
2023/09/28 13:19:11;;;;;;;4.47;2.50;;;33.50;29.90;;;;;;6226525;28;20097;-76
2023/09/28 13:22:12;;;;;;;4.65;2.53;;;33.10;29.80;;;;;;6229015;28;20056;-75
2023/09/28 13:25:14;;;;;;;4.88;2.35;;;32.70;30.10;;;;;;6227048;28;20034;-76
2023/09/28 13:28:16;;;;;;;15.23;2.83;;;32.40;30.50;;;;;;6220637;28;20504;-75
2023/09/28 13:31:17;;;;;;;6.13;2.83;;;32.00;30.90;;;;;;6239652;28;20029;-76
2023/09/28 13:34:18;;;;;;;9.38;2.53;;;31.70;31.30;;;;;;6229552;28;20739;-77
2023/09/28 13:37:19;;;;;;;3.78;2.33;;;31.50;31.60;;;;;;6231797;28;20041;-76
2023/09/28 13:40:26;;;;;;;5.22;3.10;;;31.20;32.00;;;;;;6229050;28;20056;-77
2023/09/28 13:43:27;;;;;;;7.18;2.70;;;31.00;32.30;;;;;;6234885;28;20049;-76
2023/09/28 13:46:28;;;;;;;6.38;3.22;;;30.90;32.60;;;;;;6232582;28;20461;-76
2023/09/28 13:49:31;;;;;;;5.82;2.92;;;30.70;32.80;;;;;;6231422;28;20711;-76
2023/09/28 13:52:32;;;;;;;5.22;2.63;;;30.60;33.10;;;;;;6221799;28;20025;-77
2023/09/28 13:55:33;;;;;;;6.45;3.05;;;30.40;33.30;;;;;;6239477;28;20112;-77
2023/09/28 13:58:34;;;;;;;4.88;2.63;;;30.40;33.50;;;;;;6237880;28;20131;-76
2023/09/28 14:01:36;;;;;;;7.50;3.08;;;30.30;33.50;;;;;;6221411;28;20113;-76
2023/09/28 14:04:37;;;;;;;6.25;2.55;;;30.20;33.60;;;;;;6239009;28;20124;-76
2023/09/28 14:07:38;;;;;;;7.30;3.15;;;30.20;33.80;;;;;;6239380;28;20033;-75
2023/09/28 14:10:39;;;;;;;9.15;3.45;;;30.20;33.90;;;;;;6220749;28;20105;-75
2023/09/28 14:13:40;;;;;;;6.88;2.72;;;30.10;33.90;;;;;;6237530;28;20545;-75
2023/09/28 14:16:41;;;;;;;5.65;2.90;;;30.10;34.10;;;;;;6237241;28;20033;-75
2023/09/28 14:19:43;;;;;;;4.07;2.47;;;30.00;34.20;;;;;;6222060;28;20084;-75
2023/09/28 14:22:49;;;;;;;4.82;2.83;;;30.00;34.30;;;;;;6214648;28;20800;-74
2023/09/28 14:25:51;;;;;;;5.68;2.95;;;29.90;34.40;;;;;;6214142;28;20128;-75
2023/09/28 14:28:51;;;;;;;5.40;2.97;;;29.90;34.40;;;;;;6196234;28;20030;-76
2023/09/28 14:31:53;;;;;;;4.68;2.83;;;29.90;34.50;;;;;;6213744;28;20133;-75
2023/09/28 14:34:54;;;;;;;7.63;3.35;;;29.80;34.60;;;;;;6216825;28;20048;-75
2023/09/28 14:37:55;;;;;;;8.77;3.63;;;29.80;34.90;;;;;;6232031;28;20037;-77
2023/09/28 14:40:57;;;;;;;9.02;3.08;;;29.70;35.00;;;;;;6221737;28;20025;-75
2023/09/28 14:43:59;;;;;;;8.70;2.83;;;29.70;35.20;;;;;;6212984;28;20087;-77
2023/09/28 14:47:00;;;;;;;9.02;3.05;;;29.60;35.50;;;;;;6219634;28;20034;-77
2023/09/28 14:50:05;;;;;;;4.10;2.55;;;29.60;35.70;;;;;;6235660;28;20041;-75
2023/09/28 14:53:08;;;;;;;10.38;3.00;;;29.50;35.80;;;;;;6238623;28;20091;-76
2023/09/28 14:56:12;;;;;;;5.07;2.95;;;29.50;35.90;;;;;;6237389;28;20033;-76
2023/09/28 14:59:15;;;;;;;4.47;2.83;;;29.50;36.00;;;;;;6236353;28;20037;-76
2023/09/28 15:02:17;;;;;;;6.50;2.92;;;29.50;36.10;;;;;;6220200;28;20624;-76
2023/09/28 15:05:18;;;;;;;4.60;2.75;;;29.40;36.20;;;;;;6238828;28;20055;-77
2023/09/28 15:08:19;;;;;;;7.15;3.33;;;29.40;36.40;;;;;;6238739;28;20045;-76
2023/09/28 15:11:23;;;;;;;11.25;2.90;;;29.30;36.50;;;;;;6237709;28;20055;-77
2023/09/28 15:14:24;;;;;;;5.28;3.45;;;29.30;36.60;;;;;;6239330;28;20037;-77
2023/09/28 15:17:26;;;;;;;7.78;3.15;;;29.30;36.80;;;;;;6221190;28;20501;-75
2023/09/28 15:20:26;;;;;;;13.82;3.05;;;29.30;36.90;;;;;;6212764;28;20443;-77
2023/09/28 15:23:27;;;;;;;10.65;2.92;;;29.20;37.00;;;;;;6214138;28;20080;-76
2023/09/28 15:26:30;;;;;;;6.22;3.20;;;29.30;37.40;;;;;;6194485;28;20397;-75
2023/09/28 15:29:31;;;;;;;9.23;3.88;;;29.20;37.10;;;;;;6195623;28;20152;-76
2023/09/28 15:32:32;;;;;;;6.70;3.47;;;29.20;37.20;;;;;;6213905;28;20459;-76
2023/09/28 15:35:33;;;;;;;7.38;3.40;;;29.20;37.30;;;;;;6214870;28;20030;-77
2023/09/28 15:38:34;;;;;;;6.30;2.97;;;29.20;37.40;;;;;;6211898;28;20038;-76
2023/09/28 15:41:37;;;;;;;7.22;3.10;;;29.20;37.50;;;;;;6227849;28;20112;-75